createdAt,value
2018-12-18T00:02:12.787Z,3.90
2018-12-18T00:04:40.232Z,3.90
2018-12-18T00:07:07.786Z,3.90
2018-12-18T00:09:35.184Z,3.80
2018-12-18T00:12:02.760Z,3.80
2018-12-18T00:14:30.135Z,3.90
2018-12-18T00:16:57.540Z,3.90
2018-12-18T00:19:24.959Z,3.90
2018-12-18T00:21:52.451Z,3.90
2018-12-18T00:24:20.343Z,3.90
2018-12-18T00:26:47.719Z,3.80
2018-12-18T00:29:15.123Z,3.90
2018-12-18T00:31:42.513Z,3.90
2018-12-18T00:34:09.920Z,4.10
2018-12-18T00:36:37.338Z,4.20
2018-12-18T00:39:07.994Z,4.30
2018-12-18T00:41:35.392Z,4.40
2018-12-18T00:44:03.106Z,4.50
2018-12-18T00:46:30.488Z,4.50
2018-12-18T00:48:57.889Z,4.70
2018-12-18T00:51:25.362Z,4.60
2018-12-18T00:53:52.797Z,4.60
2018-12-18T00:56:20.171Z,4.50
2018-12-18T00:58:47.612Z,4.40
2018-12-18T01:01:15.132Z,4.30
2018-12-18T01:03:42.922Z,4.20
2018-12-18T01:06:10.344Z,4.20
2018-12-18T01:08:37.793Z,4.30
2018-12-18T01:11:05.203Z,4.20
2018-12-18T01:13:32.609Z,4.30
2018-12-18T01:15:59.992Z,4.20
2018-12-18T01:18:27.399Z,4.30
2018-12-18T01:20:54.780Z,4.30
2018-12-18T01:23:22.300Z,4.20
2018-12-18T01:25:49.812Z,4.30
2018-12-18T01:28:17.205Z,4.30
2018-12-18T01:30:44.587Z,4.20
2018-12-18T01:33:11.999Z,4.30
2018-12-18T01:35:39.498Z,4.40
2018-12-18T01:38:06.921Z,4.30
2018-12-18T01:40:34.299Z,4.20
2018-12-18T01:43:01.712Z,4.20
2018-12-18T01:45:29.112Z,4.10
2018-12-18T01:47:56.481Z,4.10
2018-12-18T01:50:23.889Z,4.10
2018-12-18T01:52:51.272Z,4.10
2018-12-18T01:55:18.681Z,4.20
2018-12-18T01:57:46.060Z,4.30
2018-12-18T02:00:13.580Z,4.30
2018-12-18T02:02:40.997Z,4.30
2018-12-18T02:05:08.418Z,4.30
2018-12-18T02:07:35.815Z,4.30
2018-12-18T02:10:04.504Z,4.20
2018-12-18T02:12:31.911Z,4.20
2018-12-18T02:14:59.325Z,4.10
2018-12-18T02:20:00.763Z,4.10
2018-12-18T02:22:28.151Z,4.30
2018-12-18T02:24:55.545Z,4.20
2018-12-18T02:27:22.923Z,4.00
2018-12-18T02:29:50.319Z,3.90
2018-12-18T02:32:17.698Z,4.00
2018-12-18T02:34:45.113Z,4.10
2018-12-18T02:37:12.511Z,4.10
2018-12-18T02:39:39.903Z,4.20
2018-12-18T02:42:07.281Z,4.30
2018-12-18T02:44:34.681Z,4.40
2018-12-18T02:47:02.077Z,4.30
2018-12-18T02:49:29.491Z,4.30
2018-12-18T02:51:56.887Z,4.30
2018-12-18T02:54:24.324Z,4.40
2018-12-18T02:56:51.710Z,4.40
2018-12-18T02:59:19.181Z,4.30
2018-12-18T03:01:46.636Z,4.40
2018-12-18T03:04:20.928Z,4.30
2018-12-18T03:06:43.441Z,4.30
2018-12-18T03:09:10.857Z,4.30
2018-12-18T03:11:38.237Z,4.30
2018-12-18T03:14:05.644Z,4.30
2018-12-18T03:16:33.024Z,4.20
2018-12-18T03:19:00.427Z,4.30
2018-12-18T03:21:27.812Z,4.30
2018-12-18T03:23:55.242Z,4.20
2018-12-18T03:26:22.623Z,4.20
2018-12-18T03:28:50.260Z,4.20
2018-12-18T03:31:17.658Z,4.20
2018-12-18T03:33:45.176Z,4.10
2018-12-18T03:36:12.548Z,4.10
2018-12-18T03:38:39.956Z,4.00
2018-12-18T03:41:07.340Z,4.00
2018-12-18T03:43:34.856Z,4.10
2018-12-18T03:46:02.346Z,4.10
2018-12-18T03:48:29.779Z,4.00
2018-12-18T03:50:57.185Z,3.90
2018-12-18T03:53:24.570Z,3.80
2018-12-18T03:55:52.010Z,3.60
2018-12-18T03:58:19.387Z,3.50
2018-12-18T04:00:46.779Z,3.50
2018-12-18T04:03:14.163Z,3.40
2018-12-18T04:05:41.570Z,3.20
2018-12-18T04:08:08.957Z,3.00
2018-12-18T04:10:36.404Z,2.80
2018-12-18T04:13:03.908Z,2.70
2018-12-18T04:15:31.302Z,2.60
2018-12-18T04:17:58.676Z,2.50
2018-12-18T04:20:26.092Z,2.50
2018-12-18T04:22:53.464Z,2.30
2018-12-18T04:25:21.033Z,2.30
2018-12-18T04:27:48.415Z,2.20
2018-12-18T04:30:15.856Z,2.10
2018-12-18T04:32:43.398Z,2.30
2018-12-18T04:35:10.856Z,2.20
2018-12-18T04:37:38.221Z,2.00
2018-12-18T04:40:06.393Z,1.90
2018-12-18T04:42:33.908Z,1.80
2018-12-18T04:45:01.312Z,1.90
2018-12-18T04:47:28.827Z,2.10
2018-12-18T04:49:56.348Z,2.10
2018-12-18T04:52:23.848Z,2.10
2018-12-18T04:54:51.249Z,2.00
2018-12-18T04:57:18.722Z,1.90
2018-12-18T04:59:46.144Z,1.80
2018-12-18T05:02:13.635Z,1.90
2018-12-18T05:04:41.061Z,1.90
2018-12-18T05:07:08.460Z,1.80
2018-12-18T05:09:35.855Z,1.70
2018-12-18T05:12:03.368Z,1.70
2018-12-18T05:14:30.785Z,1.80
2018-12-18T05:16:58.161Z,1.80
2018-12-18T05:19:25.584Z,1.90
2018-12-18T05:21:52.960Z,2.00
2018-12-18T05:24:20.638Z,2.00
2018-12-18T05:26:48.020Z,2.00
2018-12-18T05:29:15.539Z,2.00
2018-12-18T05:31:42.918Z,2.00
2018-12-18T05:34:10.328Z,2.00
2018-12-18T05:36:37.744Z,2.10
2018-12-18T05:39:06.488Z,2.10
2018-12-18T05:41:33.876Z,2.10
2018-12-18T05:44:01.252Z,2.00
2018-12-18T05:46:28.672Z,1.90
2018-12-18T05:48:56.183Z,1.80
2018-12-18T05:51:23.571Z,1.60
2018-12-18T05:53:50.946Z,1.50
2018-12-18T05:56:18.483Z,1.40
2018-12-18T05:58:45.930Z,1.40
2018-12-18T06:01:13.347Z,1.30
2018-12-18T06:03:40.747Z,1.20
2018-12-18T06:06:08.148Z,1.20
2018-12-18T06:08:35.540Z,1.00
2018-12-18T06:11:02.946Z,1.00
2018-12-18T06:13:30.329Z,1.10
2018-12-18T06:15:57.848Z,1.10
2018-12-18T06:18:25.231Z,1.10
2018-12-18T06:20:52.616Z,1.10
2018-12-18T06:23:19.983Z,1.00
2018-12-18T06:25:47.384Z,0.90
2018-12-18T06:28:15.506Z,0.70
2018-12-18T06:30:42.910Z,0.60
2018-12-18T06:33:10.276Z,0.60
2018-12-18T06:35:37.800Z,0.50
2018-12-18T06:38:05.305Z,0.60
2018-12-18T06:40:32.718Z,0.60
2018-12-18T06:43:00.114Z,0.50
2018-12-18T06:45:27.523Z,0.60
2018-12-18T06:47:54.919Z,0.60
2018-12-18T06:50:22.380Z,0.70
2018-12-18T06:52:49.773Z,0.70
2018-12-18T06:55:17.276Z,0.80
2018-12-18T06:57:44.676Z,0.90
2018-12-18T07:00:12.155Z,1.00
2018-12-18T07:02:39.644Z,1.10
2018-12-18T07:05:07.068Z,1.20
2018-12-18T07:07:34.482Z,1.20
2018-12-18T07:10:01.900Z,1.20
2018-12-18T07:12:29.299Z,1.20
2018-12-18T07:14:56.711Z,1.30
2018-12-18T07:17:24.096Z,1.20
2018-12-18T07:19:51.528Z,1.30
2018-12-18T07:22:18.909Z,1.20
2018-12-18T07:24:46.332Z,1.30
2018-12-18T07:27:13.724Z,1.40
2018-12-18T07:29:41.122Z,1.40
2018-12-18T07:32:08.500Z,1.50
2018-12-18T07:34:35.908Z,1.50
2018-12-18T07:37:03.348Z,1.60
2018-12-18T07:39:30.769Z,1.40
2018-12-18T07:41:58.231Z,1.60
2018-12-18T07:44:25.732Z,1.70
2018-12-18T07:46:53.142Z,1.80
2018-12-18T07:49:20.532Z,1.80
2018-12-18T07:51:47.972Z,1.80
2018-12-18T07:54:15.429Z,1.90
2018-12-18T07:56:42.853Z,1.90
2018-12-18T07:59:10.246Z,1.90
2018-12-18T08:01:37.667Z,2.10
2018-12-18T08:04:05.052Z,2.00
2018-12-18T08:06:32.485Z,2.10
2018-12-18T08:08:59.854Z,2.10
2018-12-18T08:11:27.244Z,2.10
2018-12-18T08:13:54.655Z,2.20
2018-12-18T08:16:22.052Z,2.10
2018-12-18T08:18:49.439Z,2.20
2018-12-18T08:21:16.835Z,2.10
2018-12-18T08:23:44.211Z,2.10
2018-12-18T08:26:11.649Z,2.30
2018-12-18T08:28:39.015Z,2.50
2018-12-18T08:31:06.420Z,2.50
2018-12-18T08:33:33.823Z,2.60
2018-12-18T08:36:01.280Z,2.60
2018-12-18T08:38:28.660Z,2.70
2018-12-18T08:40:56.077Z,2.70
2018-12-18T08:43:23.465Z,2.60
2018-12-18T08:45:50.883Z,2.60
2018-12-18T08:48:18.661Z,2.50
2018-12-18T08:50:46.090Z,2.40
2018-12-18T08:53:13.562Z,2.30
2018-12-18T08:55:41.052Z,2.40
2018-12-18T08:58:08.435Z,2.40
2018-12-18T09:00:35.843Z,2.40
2018-12-18T09:03:03.241Z,2.50
2018-12-18T09:05:30.709Z,2.60
2018-12-18T09:07:58.157Z,2.60
2018-12-18T09:10:25.604Z,2.70
2018-12-18T09:12:53.015Z,2.90
2018-12-18T09:15:26.024Z,2.90
2018-12-18T09:17:53.432Z,2.90
2018-12-18T09:20:20.862Z,3.30
2018-12-18T09:22:48.271Z,3.40
2018-12-18T09:25:15.696Z,3.50
2018-12-18T09:27:43.108Z,3.80
2018-12-18T09:30:10.623Z,4.20
2018-12-18T09:32:38.281Z,4.50
2018-12-18T09:35:06.880Z,4.90
2018-12-18T09:37:34.315Z,5.10
2018-12-18T09:40:01.780Z,5.20
2018-12-18T09:42:34.888Z,5.60
2018-12-18T09:45:02.628Z,6.50
2018-12-18T09:47:30.052Z,6.80
2018-12-18T09:49:57.572Z,7.20
2018-12-18T09:52:24.972Z,8.00
2018-12-18T09:54:52.432Z,8.50
2018-12-18T09:57:25.663Z,8.20
2018-12-18T09:59:53.040Z,7.80
2018-12-18T10:02:20.415Z,8.00
2018-12-18T10:04:47.815Z,8.10
2018-12-18T10:07:15.199Z,8.20
2018-12-18T10:09:42.597Z,8.10
2018-12-18T10:12:09.987Z,7.80
2018-12-18T10:14:37.389Z,8.10
2018-12-18T10:17:04.770Z,8.30
2018-12-18T10:19:32.171Z,8.40
2018-12-18T10:21:59.548Z,9.30
2018-12-18T10:24:26.964Z,10.00
2018-12-18T10:26:54.344Z,10.30
2018-12-18T10:29:21.761Z,10.50
2018-12-18T10:31:49.151Z,10.80
2018-12-18T10:34:16.553Z,10.10
2018-12-18T10:36:43.944Z,10.40
2018-12-18T10:39:11.368Z,10.50
2018-12-18T10:41:38.738Z,10.50
2018-12-18T10:44:06.142Z,10.10
2018-12-18T10:46:40.220Z,10.70
2018-12-18T10:49:07.619Z,10.90
2018-12-18T10:51:35.018Z,10.50
2018-12-18T10:54:02.436Z,10.30
2018-12-18T10:56:29.831Z,10.50
2018-12-18T10:58:57.269Z,10.50
2018-12-18T11:01:30.490Z,10.50
2018-12-18T11:03:57.892Z,10.10
2018-12-18T11:06:25.405Z,9.90
2018-12-18T11:08:52.919Z,9.60
2018-12-18T11:11:20.292Z,9.20
2018-12-18T11:13:47.730Z,8.70
2018-12-18T11:16:15.124Z,8.60
2018-12-18T11:18:42.519Z,8.30
2018-12-18T11:21:10.071Z,8.10
2018-12-18T11:23:37.502Z,8.00
2018-12-18T11:26:04.996Z,7.80
2018-12-18T11:28:32.393Z,7.80
2018-12-18T11:30:59.776Z,7.90
2018-12-18T11:33:27.197Z,7.80
2018-12-18T11:35:54.847Z,7.80
2018-12-18T11:38:22.368Z,7.70
2018-12-18T11:40:49.737Z,7.60
2018-12-18T11:43:17.139Z,7.60
2018-12-18T11:45:44.519Z,7.60
2018-12-18T11:48:11.897Z,7.60
2018-12-18T11:50:39.443Z,7.70
2018-12-18T11:53:06.819Z,7.60
2018-12-18T11:55:34.336Z,7.60
2018-12-18T11:58:01.717Z,7.60
2018-12-18T12:00:29.122Z,7.60
2018-12-18T12:02:56.495Z,7.40
2018-12-18T12:05:23.942Z,7.30
2018-12-18T12:07:51.315Z,7.40
2018-12-18T12:10:18.711Z,7.40
2018-12-18T12:12:46.156Z,7.30
2018-12-18T12:15:13.931Z,7.20
2018-12-18T12:17:41.536Z,7.30
2018-12-18T12:20:09.097Z,7.20
2018-12-18T12:22:36.483Z,7.20
2018-12-18T12:25:04.744Z,7.30
2018-12-18T12:27:37.687Z,7.30
2018-12-18T12:30:07.032Z,7.30
2018-12-18T12:32:34.403Z,7.30
2018-12-18T12:35:01.815Z,7.40
2018-12-18T12:37:29.183Z,7.30
2018-12-18T12:39:56.588Z,7.10
2018-12-18T12:42:23.963Z,7.10
2018-12-18T12:44:51.367Z,7.10
2018-12-18T12:47:18.743Z,7.00
2018-12-18T12:49:46.173Z,7.10
2018-12-18T12:52:13.544Z,7.10
2018-12-18T12:54:40.952Z,7.20
2018-12-18T12:57:08.468Z,7.10
2018-12-18T12:59:35.916Z,7.10
2018-12-18T13:02:03.544Z,6.90
2018-12-18T13:04:30.936Z,6.70
2018-12-18T13:06:58.317Z,6.70
2018-12-18T13:09:25.728Z,6.80
2018-12-18T13:11:53.107Z,7.00
2018-12-18T13:14:20.488Z,7.00
2018-12-18T13:16:47.859Z,7.10
2018-12-18T13:19:15.260Z,7.00
2018-12-18T13:21:42.724Z,7.00
2018-12-18T13:24:10.146Z,7.00
2018-12-18T13:26:37.526Z,7.00
2018-12-18T13:29:04.909Z,6.90
2018-12-18T13:31:32.401Z,6.80
2018-12-18T13:33:59.891Z,6.80
2018-12-18T13:36:27.310Z,6.80
2018-12-18T13:38:54.683Z,6.70
2018-12-18T13:41:22.076Z,6.50
2018-12-18T13:43:49.468Z,6.50
2018-12-18T13:46:16.872Z,6.50
2018-12-18T13:48:44.264Z,6.60
2018-12-18T13:51:11.695Z,6.60
2018-12-18T13:53:39.079Z,6.60
2018-12-18T13:56:06.475Z,6.50
2018-12-18T13:58:33.840Z,6.50
2018-12-18T14:01:01.248Z,6.40
2018-12-18T14:03:28.714Z,6.30
2018-12-18T14:05:56.152Z,6.30
2018-12-18T14:08:23.545Z,6.30
2018-12-18T14:10:50.985Z,6.10
2018-12-18T14:13:18.364Z,6.00
2018-12-18T14:15:45.797Z,6.00
2018-12-18T14:18:13.251Z,6.00
2018-12-18T14:20:40.709Z,6.00
2018-12-18T14:23:08.112Z,5.90
2018-12-18T14:25:35.525Z,6.00
2018-12-18T14:28:02.939Z,5.90
2018-12-18T14:30:30.502Z,5.80
2018-12-18T14:32:57.880Z,5.70
2018-12-18T14:35:25.353Z,5.70
2018-12-18T14:37:52.851Z,5.70
2018-12-18T14:40:20.287Z,5.60
2018-12-18T14:42:47.687Z,5.40
2018-12-18T14:45:15.189Z,5.30
2018-12-18T14:47:42.575Z,5.40
2018-12-18T14:50:10.227Z,5.30
2018-12-18T14:52:37.595Z,5.20
2018-12-18T14:55:05.258Z,5.20
2018-12-18T14:57:32.643Z,5.10
2018-12-18T15:00:00.032Z,4.90
2018-12-18T15:02:27.455Z,4.90
2018-12-18T15:04:54.856Z,4.80
2018-12-18T15:07:22.323Z,4.80
2018-12-18T15:09:49.707Z,4.70
2018-12-18T15:12:17.136Z,4.60
2018-12-18T15:14:44.511Z,4.60
2018-12-18T15:17:11.949Z,4.50
2018-12-18T15:19:39.336Z,4.60
2018-12-18T15:22:06.964Z,4.50
2018-12-18T15:24:34.335Z,4.30
2018-12-18T15:27:01.766Z,4.20
2018-12-18T15:29:29.143Z,4.10
2018-12-18T15:31:56.677Z,4.10
2018-12-18T15:34:24.075Z,4.10
2018-12-18T15:36:51.523Z,4.00
2018-12-18T15:39:19.033Z,4.00
2018-12-18T15:41:46.471Z,4.00
2018-12-18T15:44:13.864Z,4.00
2018-12-18T15:46:41.312Z,3.90
2018-12-18T15:49:08.687Z,3.90
2018-12-18T15:51:36.094Z,3.80
2018-12-18T15:54:03.595Z,3.70
2018-12-18T15:56:31.033Z,3.60
2018-12-18T15:58:58.409Z,3.60
2018-12-18T16:01:25.835Z,3.70
2018-12-18T16:03:53.234Z,3.60
2018-12-18T16:06:20.672Z,3.60
2018-12-18T16:08:48.048Z,3.50
2018-12-18T16:11:15.491Z,3.30
2018-12-18T16:13:42.880Z,3.20
2018-12-18T16:16:10.756Z,3.00
2018-12-18T16:18:38.148Z,2.90
2018-12-18T16:21:05.637Z,2.90
2018-12-18T16:23:33.062Z,2.80
2018-12-18T16:26:00.427Z,2.70
2018-12-18T16:28:27.853Z,2.60
2018-12-18T16:30:55.312Z,2.50
2018-12-18T16:33:22.742Z,2.40
2018-12-18T16:35:50.131Z,2.40
2018-12-18T16:38:17.589Z,2.40
2018-12-18T16:40:45.039Z,2.40
2018-12-18T16:43:12.544Z,2.30
2018-12-18T16:45:39.976Z,2.10
2018-12-18T16:48:07.417Z,2.00
2018-12-18T16:50:34.948Z,1.90
2018-12-18T16:53:02.551Z,1.90
2018-12-18T16:55:29.923Z,1.90
2018-12-18T16:57:57.426Z,1.90
2018-12-18T17:00:24.880Z,1.80
2018-12-18T17:02:52.293Z,1.80
2018-12-18T17:05:19.675Z,1.70
2018-12-18T17:07:47.111Z,1.60
2018-12-18T17:10:14.478Z,1.60
2018-12-18T17:12:46.488Z,1.60
2018-12-18T17:15:13.847Z,1.60
2018-12-18T17:17:41.273Z,1.50
2018-12-18T17:20:08.663Z,1.40
2018-12-18T17:22:36.124Z,1.20
2018-12-18T17:25:04.172Z,1.10
2018-12-18T17:27:31.612Z,1.10
2018-12-18T17:29:59.008Z,1.10
2018-12-18T17:32:26.448Z,1.10
2018-12-18T17:34:53.816Z,1.00
2018-12-18T17:37:21.261Z,0.90
2018-12-18T17:39:49.683Z,0.90
2018-12-18T17:42:17.128Z,1.00
2018-12-18T17:44:44.527Z,0.90
2018-12-18T17:47:11.970Z,0.90
2018-12-18T17:49:39.347Z,1.00
2018-12-18T17:52:06.781Z,1.10
2018-12-18T17:54:34.156Z,1.00
2018-12-18T17:57:08.337Z,1.20
2018-12-18T17:59:35.712Z,1.20
2018-12-18T18:02:03.119Z,1.30
2018-12-18T18:04:30.564Z,1.20
2018-12-18T18:06:58.168Z,1.00
2018-12-18T18:09:25.591Z,1.00
2018-12-18T18:11:53.219Z,0.90
2018-12-18T18:14:20.665Z,0.90
2018-12-18T18:16:48.047Z,1.00
2018-12-18T18:19:15.569Z,1.10
2018-12-18T18:21:43.053Z,1.00
2018-12-18T18:24:10.483Z,0.90
2018-12-18T18:26:37.864Z,0.90
2018-12-18T18:29:05.312Z,0.80
2018-12-18T18:31:32.700Z,0.80
2018-12-18T18:34:00.166Z,0.60
2018-12-18T18:36:27.573Z,0.50
2018-12-18T18:38:55.024Z,0.40
2018-12-18T18:41:22.424Z,0.40
2018-12-18T18:43:49.884Z,0.30
2018-12-18T18:46:17.283Z,0.30
2018-12-18T18:48:44.721Z,0.40
2018-12-18T18:51:12.124Z,0.40
2018-12-18T18:53:39.576Z,0.50
2018-12-18T18:56:07.227Z,0.70
2018-12-18T18:58:34.656Z,0.80
2018-12-18T19:01:02.027Z,0.80
2018-12-18T19:03:29.472Z,0.80
2018-12-18T19:05:56.908Z,0.90
2018-12-18T19:08:24.343Z,0.90
2018-12-18T19:10:51.729Z,0.80
2018-12-18T19:13:19.155Z,0.80
2018-12-18T19:15:46.576Z,0.80
2018-12-18T19:18:14.004Z,0.80
2018-12-18T19:20:41.402Z,0.80
2018-12-18T19:23:09.861Z,0.90
2018-12-18T19:25:37.252Z,0.80
2018-12-18T19:28:04.714Z,0.70
2018-12-18T19:30:32.157Z,0.70
2018-12-18T19:32:59.606Z,0.70
2018-12-18T19:35:26.987Z,0.70
2018-12-18T19:37:54.420Z,0.80
2018-12-18T19:40:21.860Z,0.80
2018-12-18T19:42:49.292Z,0.80
2018-12-18T19:45:16.749Z,0.80
2018-12-18T19:47:44.292Z,0.80
2018-12-18T19:50:11.821Z,0.80
2018-12-18T19:52:39.261Z,0.70
2018-12-18T19:55:06.888Z,0.70
2018-12-18T19:57:34.555Z,0.60
2018-12-18T20:00:02.010Z,0.60
2018-12-18T20:02:29.379Z,0.70
2018-12-18T20:04:56.830Z,0.70
2018-12-18T20:07:24.216Z,0.70
2018-12-18T20:09:51.668Z,0.70
2018-12-18T20:12:19.080Z,0.80
2018-12-18T20:14:46.552Z,0.90
2018-12-18T20:17:14.163Z,0.80
2018-12-18T20:19:43.084Z,0.80
2018-12-18T20:22:10.763Z,0.70
2018-12-18T20:24:38.221Z,0.90
2018-12-18T20:27:05.637Z,0.90
2018-12-18T20:29:33.772Z,0.80
2018-12-18T20:32:01.351Z,0.90
2018-12-18T20:34:28.785Z,0.80
2018-12-18T20:36:56.174Z,0.80
2018-12-18T20:39:23.627Z,0.70
2018-12-18T20:41:51.052Z,0.60
2018-12-18T20:44:18.495Z,0.60
2018-12-18T20:46:45.898Z,0.60
2018-12-18T20:49:13.353Z,0.70
2018-12-18T20:51:40.719Z,0.70
2018-12-18T20:54:08.152Z,0.60
2018-12-18T20:56:35.536Z,0.60
2018-12-18T20:59:04.348Z,0.60
2018-12-18T21:01:31.919Z,0.60
2018-12-18T21:03:59.466Z,0.40
2018-12-18T21:06:26.976Z,0.50
2018-12-18T21:08:54.515Z,0.50
2018-12-18T21:11:22.053Z,0.50
2018-12-18T21:13:49.613Z,0.50
2018-12-18T21:16:17.125Z,0.50
2018-12-18T21:18:44.681Z,0.50
2018-12-18T21:21:15.406Z,0.50
2018-12-18T21:23:41.928Z,0.60
2018-12-18T21:26:09.529Z,0.70
2018-12-18T21:28:37.023Z,0.70
2018-12-18T21:31:04.571Z,0.70
2018-12-18T21:33:32.735Z,0.60
2018-12-18T21:36:00.297Z,0.60
2018-12-18T21:38:30.466Z,0.70
2018-12-18T21:40:57.408Z,0.80
2018-12-18T21:43:24.967Z,0.80
2018-12-18T21:45:52.500Z,1.00
2018-12-18T21:48:19.996Z,1.00
2018-12-18T21:50:47.564Z,1.00
2018-12-18T21:53:15.074Z,1.00
2018-12-18T21:55:42.625Z,0.90
2018-12-18T21:58:10.120Z,0.90
2018-12-18T22:00:37.642Z,1.00
2018-12-18T22:03:05.141Z,1.00
2018-12-18T22:05:32.668Z,1.10
2018-12-18T22:08:00.166Z,1.10
2018-12-18T22:10:27.702Z,1.20
2018-12-18T22:12:55.199Z,1.10
2018-12-18T22:15:22.723Z,1.30
2018-12-18T22:17:50.220Z,1.30
2018-12-18T22:20:17.762Z,1.30
2018-12-18T22:22:45.288Z,1.20
2018-12-18T22:25:12.733Z,1.20
2018-12-18T22:27:41.140Z,1.20
2018-12-18T22:30:08.805Z,1.10
2018-12-18T22:32:36.204Z,1.20
2018-12-18T22:35:03.847Z,1.40
2018-12-18T22:37:31.232Z,1.40
2018-12-18T22:39:58.614Z,1.40
2018-12-18T22:42:25.983Z,1.40
2018-12-18T22:44:53.374Z,1.40
2018-12-18T22:47:20.753Z,1.50
2018-12-18T22:49:48.167Z,1.50
2018-12-18T22:52:15.548Z,1.50
2018-12-18T22:54:42.955Z,1.60
2018-12-18T22:57:10.348Z,1.60
2018-12-18T22:59:37.747Z,1.50
2018-12-18T23:02:10.904Z,1.50
2018-12-18T23:04:38.376Z,1.50
2018-12-18T23:07:05.769Z,1.40
2018-12-18T23:09:33.156Z,1.30
2018-12-18T23:12:00.577Z,1.40
2018-12-18T23:14:27.970Z,1.40
2018-12-18T23:16:55.480Z,1.50
2018-12-18T23:19:23.994Z,1.50
2018-12-18T23:21:51.531Z,1.40
2018-12-18T23:24:19.056Z,1.30
2018-12-18T23:26:47.323Z,1.20
2018-12-18T23:29:14.800Z,1.20
2018-12-18T23:31:42.202Z,1.30
2018-12-18T23:34:09.602Z,1.40
2018-12-18T23:36:37.399Z,1.30
2018-12-18T23:39:07.247Z,1.30
2018-12-18T23:41:34.662Z,1.40
2018-12-18T23:44:02.211Z,1.30
2018-12-18T23:46:29.613Z,1.40
2018-12-18T23:48:57.076Z,1.30
2018-12-18T23:51:24.625Z,1.30
2018-12-18T23:53:52.035Z,1.30
2018-12-18T23:56:19.436Z,1.40
2018-12-18T23:58:46.957Z,1.50
